Time,TemperatureF,DewpointF,PressureIn,WindDirection,WindDirectionDegrees,WindSpeedMPH,WindSpeedGustMPH,Humidity,HourlyPrecipIn,Conditions,Clouds,dailyrainin,SoftwareType,DateUTC
2013-04-30 00:00:00,62.1,61.8,31.68,South,187,0.0,0.0,99,0.00,,,1.56,Wunderground v.1.15,2013-04-30 04:00:00,
2013-04-30 00:05:00,61.9,61.6,31.68,South,187,0.0,0.0,99,0.00,,,0.00,Wunderground v.1.15,2013-04-30 04:05:00,
2013-04-30 00:10:00,61.8,61.5,31.68,South,187,0.0,0.0,99,0.00,,,0.00,Wunderground v.1.15,2013-04-30 04:10:00,
2013-04-30 00:15:00,61.7,61.4,31.68,South,187,0.0,0.0,99,0.00,,,0.00,Wunderground v.1.15,2013-04-30 04:15:00,
2013-04-30 00:20:00,61.6,61.3,31.68,South,187,0.0,0.0,99,0.00,,,0.00,Wunderground v.1.15,2013-04-30 04:20:00,
2013-04-30 00:25:00,61.4,61.1,31.68,South,187,0.0,0.0,99,0.00,,,0.00,Wunderground v.1.15,2013-04-30 04:25:00,
2013-04-30 00:30:00,61.2,60.9,31.68,South,187,0.0,0.0,99,0.00,,,0.00,Wunderground v.1.15,2013-04-30 04:30:00,
2013-04-30 00:35:00,61.0,60.4,31.68,South,187,0.0,0.0,98,0.00,,,0.00,Wunderground v.1.15,2013-04-30 04:35:00,
2013-04-30 00:40:00,60.9,60.6,31.68,South,187,0.0,0.0,99,0.00,,,0.00,Wunderground v.1.15,2013-04-30 04:40:00,
2013-04-30 00:45:00,60.8,60.5,31.68,South,187,0.0,0.0,99,0.00,,,0.00,Wunderground v.1.15,2013-04-30 04:45:00,
2013-04-30 00:50:00,60.6,60.3,31.68,South,187,0.0,0.0,99,0.00,,,0.00,Wunderground v.1.15,2013-04-30 04:50:00,
2013-04-30 00:55:00,60.4,60.1,31.68,South,187,0.0,0.0,99,0.00,,,0.00,Wunderground v.1.15,2013-04-30 04:55:00,
2013-04-30 01:00:00,60.4,60.1,31.68,South,187,0.0,0.0,99,0.00,,,0.00,Wunderground v.1.15,2013-04-30 05:00:00,
2013-04-30 01:05:00,60.3,60.0,31.68,South,187,0.0,0.0,99,0.00,,,0.00,Wunderground v.1.15,2013-04-30 05:05:00,
2013-04-30 01:15:00,60.2,59.9,31.68,South,187,0.0,0.0,99,0.00,,,0.00,Wunderground v.1.15,2013-04-30 05:15:00,
2013-04-30 01:20:00,60.1,59.8,31.68,South,187,0.0,0.0,99,0.00,,,0.00,Wunderground v.1.15,2013-04-30 05:20:00,
2013-04-30 01:25:00,59.9,59.6,31.68,South,187,0.0,0.0,99,0.00,,,0.00,Wunderground v.1.15,2013-04-30 05:25:00,
2013-04-30 01:30:00,59.9,59.6,31.68,South,187,0.0,0.0,99,0.00,,,0.00,Wunderground v.1.15,2013-04-30 05:30:00,
2013-04-30 01:35:00,59.9,59.6,31.68,South,187,0.0,0.0,99,0.00,,,0.00,Wunderground v.1.15,2013-04-30 05:35:00,
2013-04-30 01:40:00,60.0,59.7,31.68,South,187,0.0,0.0,99,0.00,,,0.00,Wunderground v.1.15,2013-04-30 05:40:00,
2013-04-30 01:45:00,60.1,59.8,31.68,South,187,0.0,0.0,99,0.00,,,0.00,Wunderground v.1.15,2013-04-30 05:45:00,
2013-04-30 01:55:00,60.4,60.1,31.68,South,187,0.0,0.0,99,0.00,,,0.00,Wunderground v.1.15,2013-04-30 05:55:00,
2013-04-30 02:05:00,60.7,60.4,31.68,South,187,0.0,0.0,99,0.00,,,0.00,Wunderground v.1.15,2013-04-30 06:05:00,
2013-04-30 02:10:00,60.8,60.5,31.68,South,187,0.0,0.0,99,0.00,,,0.00,Wunderground v.1.15,2013-04-30 06:10:00,
2013-04-30 02:15:00,60.8,60.5,31.68,South,187,0.0,0.0,99,0.00,,,0.00,Wunderground v.1.15,2013-04-30 06:15:00,
2013-04-30 02:20:00,60.9,60.6,31.68,South,187,0.0,0.0,99,0.00,,,0.00,Wunderground v.1.15,2013-04-30 06:20:00,
2013-04-30 02:25:00,61.0,60.7,31.68,South,187,0.0,0.0,99,0.00,,,0.00,Wunderground v.1.15,2013-04-30 06:25:00,
2013-04-30 02:30:00,61.3,61.0,31.68,South,187,0.0,0.0,99,0.00,,,0.00,Wunderground v.1.15,2013-04-30 06:30:00,
2013-04-30 02:35:00,61.4,61.1,31.68,South,187,0.0,0.0,99,0.00,,,0.00,Wunderground v.1.15,2013-04-30 06:35:00,
2013-04-30 02:40:00,61.5,61.2,31.68,South,187,0.0,0.0,99,0.00,,,0.00,Wunderground v.1.15,2013-04-30 06:40:00,
2013-04-30 02:45:00,61.6,61.3,31.68,South,187,0.0,0.0,99,0.00,,,0.00,Wunderground v.1.15,2013-04-30 06:45:00,
2013-04-30 02:50:00,61.7,61.4,31.68,South,187,0.0,0.0,99,0.00,,,0.00,Wunderground v.1.15,2013-04-30 06:50:00,
2013-04-30 02:55:00,61.7,61.4,31.68,South,187,0.0,0.0,99,0.00,,,0.00,Wunderground v.1.15,2013-04-30 06:55:00,
2013-04-30 03:00:00,61.8,61.5,31.68,South,187,0.0,0.0,99,0.00,,,0.00,Wunderground v.1.15,2013-04-30 07:00:00,
2013-04-30 03:05:00,61.8,61.8,31.68,South,187,0.0,0.0,100,0.00,,,0.00,Wunderground v.1.15,2013-04-30 07:05:00,
2013-04-30 03:10:00,61.8,61.8,31.68,South,187,0.0,0.0,100,0.00,,,0.00,Wunderground v.1.15,2013-04-30 07:10:00,
2013-04-30 03:15:00,61.9,61.9,31.68,South,187,0.0,0.0,100,0.00,,,0.00,Wunderground v.1.15,2013-04-30 07:15:00,
2013-04-30 03:20:00,61.9,61.9,31.68,South,187,0.0,0.0,100,0.00,,,0.00,Wunderground v.1.15,2013-04-30 07:20:00,
2013-04-30 03:25:00,62.0,62.0,31.68,South,187,0.0,0.0,100,0.00,,,0.00,Wunderground v.1.15,2013-04-30 07:25:00,
2013-04-30 03:30:00,62.0,62.0,31.68,South,187,0.0,0.0,100,0.00,,,0.00,Wunderground v.1.15,2013-04-30 07:30:00,
2013-04-30 03:35:00,62.0,62.0,31.68,South,187,0.0,0.0,100,0.00,,,0.00,Wunderground v.1.15,2013-04-30 07:35:00,
2013-04-30 03:40:00,62.0,62.0,31.68,South,187,0.0,0.0,100,0.00,,,0.00,Wunderground v.1.15,2013-04-30 07:40:00,
2013-04-30 03:45:00,62.1,62.1,31.68,South,187,0.0,0.0,100,0.00,,,0.00,Wunderground v.1.15,2013-04-30 07:45:00,
2013-04-30 03:50:00,62.1,62.1,31.68,South,187,0.0,0.0,100,0.00,,,0.00,Wunderground v.1.15,2013-04-30 07:50:00,
2013-04-30 03:55:00,62.1,62.1,31.68,South,187,0.0,0.0,100,0.00,,,0.00,Wunderground v.1.15,2013-04-30 07:55:00,
2013-04-30 04:00:00,62.1,62.1,31.68,South,187,0.0,0.0,100,0.00,,,0.00,Wunderground v.1.15,2013-04-30 08:00:00,
2013-04-30 04:05:00,62.0,62.0,31.68,South,187,0.0,0.0,100,0.00,,,0.00,Wunderground v.1.15,2013-04-30 08:05:00,
2013-04-30 04:10:00,62.1,62.1,31.68,South,187,0.0,0.0,100,0.00,,,0.00,Wunderground v.1.15,2013-04-30 08:10:00,
2013-04-30 04:15:00,62.0,62.0,31.68,South,187,0.0,0.0,100,0.00,,,0.00,Wunderground v.1.15,2013-04-30 08:15:00,
2013-04-30 04:20:00,62.0,62.0,31.68,South,187,0.0,0.0,100,0.00,,,0.00,Wunderground v.1.15,2013-04-30 08:20:00,
2013-04-30 04:25:00,62.0,62.0,31.68,South,187,0.0,0.0,100,0.00,,,0.00,Wunderground v.1.15,2013-04-30 08:25:00,
2013-04-30 04:30:00,61.9,61.9,31.68,South,187,0.0,0.0,100,0.00,,,0.00,Wunderground v.1.15,2013-04-30 08:30:00,
2013-04-30 04:35:00,61.9,61.9,31.68,South,187,0.0,0.0,100,0.00,,,0.00,Wunderground v.1.15,2013-04-30 08:35:00,
2013-04-30 04:40:00,61.9,61.9,31.68,South,187,0.0,0.0,100,0.00,,,0.00,Wunderground v.1.15,2013-04-30 08:40:00,
2013-04-30 04:50:00,61.7,61.7,31.68,South,187,0.0,0.0,100,0.00,,,0.00,Wunderground v.1.15,2013-04-30 08:50:00,
2013-04-30 04:55:00,61.7,61.7,31.68,South,187,0.0,0.0,100,0.00,,,0.00,Wunderground v.1.15,2013-04-30 08:55:00,
2013-04-30 05:00:00,61.7,61.7,31.68,South,187,0.0,0.0,100,0.00,,,0.00,Wunderground v.1.15,2013-04-30 09:00:00,
2013-04-30 05:05:00,61.8,61.8,31.68,South,187,0.0,0.0,100,0.00,,,0.00,Wunderground v.1.15,2013-04-30 09:05:00,
2013-04-30 05:10:00,61.8,61.8,31.68,South,187,0.0,0.0,100,0.00,,,0.00,Wunderground v.1.15,2013-04-30 09:10:00,
2013-04-30 05:15:00,61.7,61.7,31.68,South,187,0.0,0.0,100,0.00,,,0.00,Wunderground v.1.15,2013-04-30 09:15:00,
2013-04-30 05:20:00,61.7,61.7,31.68,South,187,0.0,0.0,100,0.00,,,0.00,Wunderground v.1.15,2013-04-30 09:20:00,
2013-04-30 05:30:00,61.7,61.7,31.68,South,187,0.0,0.0,100,0.00,,,0.00,Wunderground v.1.15,2013-04-30 09:30:00,
2013-04-30 05:35:00,61.7,61.7,31.68,South,187,0.0,0.0,100,0.00,,,0.00,Wunderground v.1.15,2013-04-30 09:35:00,
2013-04-30 05:40:00,61.7,61.7,31.68,South,187,0.0,0.0,100,0.00,,,0.00,Wunderground v.1.15,2013-04-30 09:40:00,
2013-04-30 05:45:00,61.7,61.7,31.68,South,187,0.0,0.0,100,0.00,,,0.00,Wunderground v.1.15,2013-04-30 09:45:00,
2013-04-30 05:50:00,61.7,61.7,31.68,South,187,0.0,0.0,100,0.00,,,0.00,Wunderground v.1.15,2013-04-30 09:50:00,
2013-04-30 05:55:00,61.6,61.6,31.68,South,187,0.0,0.0,100,0.00,,,0.00,Wunderground v.1.15,2013-04-30 09:55:00,
2013-04-30 06:00:00,61.6,61.6,31.68,South,187,0.0,0.0,100,0.00,,,0.00,Wunderground v.1.15,2013-04-30 10:00:00,
2013-04-30 06:05:00,61.6,61.6,31.68,South,187,1.0,1.0,100,0.00,,,0.00,Wunderground v.1.15,2013-04-30 10:05:00,
2013-04-30 06:10:00,61.6,61.6,31.68,South,187,1.0,1.0,100,0.00,,,0.00,Wunderground v.1.15,2013-04-30 10:10:00,
2013-04-30 06:20:00,61.6,61.6,31.68,South,187,0.0,0.0,100,0.00,,,0.00,Wunderground v.1.15,2013-04-30 10:20:00,
2013-04-30 06:25:00,61.6,61.6,31.68,South,187,0.0,0.0,100,0.00,,,0.00,Wunderground v.1.15,2013-04-30 10:25:00,
2013-04-30 06:30:00,61.6,61.6,31.68,South,187,0.0,0.0,100,0.00,,,0.00,Wunderground v.1.15,2013-04-30 10:30:00,
2013-04-30 06:35:00,61.6,61.6,31.68,South,187,0.0,0.0,100,0.00,,,0.00,Wunderground v.1.15,2013-04-30 10:35:00,
2013-04-30 06:40:00,61.6,61.6,31.68,South,187,0.0,0.0,100,0.00,,,0.00,Wunderground v.1.15,2013-04-30 10:40:00,
2013-04-30 06:45:00,61.6,61.6,31.68,South,187,1.0,2.0,100,0.00,,,0.00,Wunderground v.1.15,2013-04-30 10:45:00,
2013-04-30 06:50:00,61.6,61.6,31.68,South,187,1.0,2.0,100,0.00,,,0.00,Wunderground v.1.15,2013-04-30 10:50:00,
2013-04-30 07:00:00,61.6,61.6,31.68,South,187,1.0,1.0,100,0.00,,,0.00,Wunderground v.1.15,2013-04-30 11:00:00,
2013-04-30 07:05:00,61.6,61.6,31.68,South,187,0.0,1.0,100,0.00,,,0.00,Wunderground v.1.15,2013-04-30 11:05:00,
2013-04-30 07:15:00,61.7,61.7,31.68,ENE,59,2.0,3.0,100,0.00,,,0.00,Wunderground v.1.15,2013-04-30 11:15:00,
2013-04-30 07:20:00,61.5,61.5,31.68,NE,52,2.0,3.0,100,0.00,,,0.00,Wunderground v.1.15,2013-04-30 11:20:00,
2013-04-30 07:25:00,61.5,61.5,31.68,NNE,32,2.0,3.0,100,0.00,,,0.00,Wunderground v.1.15,2013-04-30 11:25:00,
2013-04-30 07:30:00,61.4,61.4,31.68,NE,34,2.0,3.0,100,0.00,,,0.00,Wunderground v.1.15,2013-04-30 11:30:00,
2013-04-30 07:40:00,61.4,61.4,31.68,NNE,28,3.0,3.0,100,0.00,,,0.00,Wunderground v.1.15,2013-04-30 11:40:00,
2013-04-30 07:45:00,61.4,61.4,31.68,NE,46,3.0,3.0,100,0.00,,,0.00,Wunderground v.1.15,2013-04-30 11:45:00,
2013-04-30 07:50:00,61.4,61.4,31.68,East,80,2.0,2.0,100,0.00,,,0.00,Wunderground v.1.15,2013-04-30 11:50:00,
2013-04-30 07:55:00,61.4,61.4,31.68,East,86,1.0,3.0,100,0.00,,,0.00,Wunderground v.1.15,2013-04-30 11:55:00,
2013-04-30 08:00:00,61.4,61.4,31.68,ENE,68,1.0,1.0,100,0.00,,,0.00,Wunderground v.1.15,2013-04-30 12:00:00,
2013-04-30 08:05:00,61.3,61.3,31.68,ENE,68,1.0,3.0,100,0.00,,,0.00,Wunderground v.1.15,2013-04-30 12:05:00,
2013-04-30 08:10:00,61.4,61.4,31.68,ENE,68,1.0,3.0,100,0.00,,,0.00,Wunderground v.1.15,2013-04-30 12:10:00,
2013-04-30 08:15:00,61.5,61.5,31.68,NE,49,2.0,3.0,100,0.00,,,0.00,Wunderground v.1.15,2013-04-30 12:15:00,
2013-04-30 08:20:00,61.6,61.6,31.68,NE,48,2.0,2.0,100,0.00,,,0.00,Wunderground v.1.15,2013-04-30 12:20:00,
2013-04-30 08:25:00,61.7,61.7,31.68,NE,47,2.0,3.0,100,0.00,,,0.00,Wunderground v.1.15,2013-04-30 12:25:00,
2013-04-30 08:30:00,61.8,61.8,31.68,NE,46,1.0,1.0,100,0.00,,,0.00,Wunderground v.1.15,2013-04-30 12:30:00,
2013-04-30 08:35:00,61.8,61.8,31.68,NE,46,1.0,1.0,100,0.00,,,0.00,Wunderground v.1.15,2013-04-30 12:35:00,
2013-04-30 08:40:00,61.9,61.9,31.68,NE,47,1.0,1.0,100,0.00,,,0.00,Wunderground v.1.15,2013-04-30 12:40:00,
2013-04-30 08:45:00,61.9,61.9,31.68,ENE,61,2.0,2.0,100,0.00,,,0.00,Wunderground v.1.15,2013-04-30 12:45:00,
2013-04-30 08:50:00,62.0,62.0,31.68,NE,49,3.0,3.0,100,0.00,,,0.00,Wunderground v.1.15,2013-04-30 12:50:00,
2013-04-30 08:55:00,62.0,62.0,31.68,NE,56,3.0,4.0,100,0.00,,,0.00,Wunderground v.1.15,2013-04-30 12:55:00,
2013-04-30 09:00:00,62.2,62.2,31.68,NE,42,3.0,6.0,100,0.00,,,0.00,Wunderground v.1.15,2013-04-30 13:00:00,
2013-04-30 09:05:00,62.3,62.0,31.68,ENE,72,3.0,6.0,99,0.00,,,0.00,Wunderground v.1.15,2013-04-30 13:05:00,
2013-04-30 09:10:00,62.4,62.4,31.68,NE,47,3.0,3.0,100,0.00,,,0.00,Wunderground v.1.15,2013-04-30 13:10:00,
2013-04-30 09:15:00,62.5,62.2,31.68,East,79,3.0,3.0,99,0.00,,,0.00,Wunderground v.1.15,2013-04-30 13:15:00,
2013-04-30 09:20:00,62.7,62.4,31.68,ENE,57,2.0,2.0,99,0.00,,,0.00,Wunderground v.1.15,2013-04-30 13:20:00,
2013-04-30 09:25:00,63.0,62.7,31.68,ENE,64,1.0,2.0,99,0.00,,,0.00,Wunderground v.1.15,2013-04-30 13:25:00,
2013-04-30 09:30:00,63.2,62.9,31.68,ENE,64,1.0,1.0,99,0.00,,,0.00,Wunderground v.1.15,2013-04-30 13:30:00,
2013-04-30 09:35:00,63.4,63.1,31.68,ENE,74,1.0,3.0,99,0.00,,,0.00,Wunderground v.1.15,2013-04-30 13:35:00,
2013-04-30 09:45:00,63.8,63.5,31.68,ENE,71,2.0,4.0,99,0.00,,,0.00,Wunderground v.1.15,2013-04-30 13:45:00,
2013-04-30 09:50:00,64.1,63.8,31.68,NE,40,2.0,5.0,99,0.00,,,0.00,Wunderground v.1.15,2013-04-30 13:50:00,
2013-04-30 09:55:00,64.4,63.8,31.68,NE,56,3.0,5.0,98,0.00,,,0.00,Wunderground v.1.15,2013-04-30 13:55:00,
2013-04-30 10:00:00,64.6,64.0,31.68,NE,37,2.0,4.0,98,0.00,,,0.00,Wunderground v.1.15,2013-04-30 14:00:00,
2013-04-30 10:05:00,64.8,63.9,31.68,East,79,1.0,4.0,97,0.00,,,0.00,Wunderground v.1.15,2013-04-30 14:05:00,
2013-04-30 10:10:00,65.0,64.1,31.68,ENE,72,2.0,4.0,97,0.00,,,0.00,Wunderground v.1.15,2013-04-30 14:10:00,
2013-04-30 10:20:00,65.5,64.3,31.68,East,84,2.0,2.0,96,0.00,,,0.00,Wunderground v.1.15,2013-04-30 14:20:00,
2013-04-30 10:25:00,65.7,64.5,31.68,NNE,29,2.0,5.0,96,0.00,,,0.00,Wunderground v.1.15,2013-04-30 14:25:00,
2013-04-30 10:30:00,65.9,64.4,31.68,ENE,57,3.0,4.0,95,0.00,,,0.00,Wunderground v.1.15,2013-04-30 14:30:00,
2013-04-30 10:35:00,66.0,64.2,31.68,ENE,76,4.0,4.0,94,0.00,,,0.00,Wunderground v.1.15,2013-04-30 14:35:00,
2013-04-30 10:45:00,66.5,64.7,31.68,East,90,3.0,4.0,94,0.00,,,0.00,Wunderground v.1.15,2013-04-30 14:45:00,
2013-04-30 10:55:00,66.8,64.7,31.68,NNE,33,3.0,3.0,93,0.00,,,0.00,Wunderground v.1.15,2013-04-30 14:55:00,
2013-04-30 11:00:00,66.8,64.7,31.68,ENE,61,2.0,2.0,93,0.00,,,0.00,Wunderground v.1.15,2013-04-30 15:00:00,
2013-04-30 11:05:00,67.0,64.9,31.68,NNE,32,2.0,2.0,93,0.00,,,0.00,Wunderground v.1.15,2013-04-30 15:05:00,
2013-04-30 11:10:00,67.2,65.1,31.68,NE,35,2.0,2.0,93,0.00,,,0.00,Wunderground v.1.15,2013-04-30 15:10:00,
2013-04-30 11:15:00,67.4,65.3,31.68,NE,51,2.0,2.0,93,0.00,,,0.00,Wunderground v.1.15,2013-04-30 15:15:00,
2013-04-30 11:20:00,67.8,65.4,31.68,NE,51,3.0,4.0,92,0.00,,,0.00,Wunderground v.1.15,2013-04-30 15:20:00,
2013-04-30 11:25:00,68.1,65.4,31.68,East,92,4.0,4.0,91,0.00,,,0.00,Wunderground v.1.15,2013-04-30 15:25:00,
2013-04-30 11:30:00,68.6,65.9,31.68,North,10,4.0,4.0,91,0.00,,,0.00,Wunderground v.1.15,2013-04-30 15:30:00,
2013-04-30 11:35:00,68.7,65.3,31.68,ENE,63,5.0,5.0,89,0.00,,,0.00,Wunderground v.1.15,2013-04-30 15:35:00,
2013-04-30 11:40:00,69.0,65.6,31.68,ENE,65,5.0,5.0,89,0.00,,,0.00,Wunderground v.1.15,2013-04-30 15:40:00,
2013-04-30 11:45:00,68.8,65.1,31.68,NE,34,5.0,10.0,88,0.00,,,0.00,Wunderground v.1.15,2013-04-30 15:45:00,
2013-04-30 11:50:00,68.8,65.4,31.68,ENE,73,5.0,5.0,89,0.00,,,0.00,Wunderground v.1.15,2013-04-30 15:50:00,
2013-04-30 11:55:00,69.1,65.4,31.68,NE,56,5.0,5.0,88,0.00,,,0.00,Wunderground v.1.15,2013-04-30 15:55:00,
2013-04-30 12:00:00,69.6,65.9,31.68,ENE,64,5.0,5.0,88,0.00,,,0.00,Wunderground v.1.15,2013-04-30 16:00:00,
2013-04-30 12:05:00,70.1,66.4,31.68,NNE,21,5.0,5.0,88,0.00,,,0.00,Wunderground v.1.15,2013-04-30 16:05:00,
2013-04-30 12:15:00,70.4,66.0,31.68,ENE,61,5.0,6.0,86,0.00,,,0.00,Wunderground v.1.15,2013-04-30 16:15:00,
2013-04-30 12:20:00,70.1,66.0,31.68,NE,44,5.0,6.0,87,0.00,,,0.00,Wunderground v.1.15,2013-04-30 16:20:00,
2013-04-30 12:25:00,69.8,65.4,31.68,NNE,33,5.0,6.0,86,0.00,,,0.00,Wunderground v.1.15,2013-04-30 16:25:00,
2013-04-30 12:30:00,69.6,65.2,31.68,NE,48,5.0,5.0,86,0.00,,,0.00,Wunderground v.1.15,2013-04-30 16:30:00,
2013-04-30 12:35:00,70.0,65.6,31.68,East,87,5.0,6.0,86,0.00,,,0.00,Wunderground v.1.15,2013-04-30 16:35:00,
2013-04-30 12:40:00,70.2,65.8,31.68,ENE,72,5.0,5.0,86,0.00,,,0.00,Wunderground v.1.15,2013-04-30 16:40:00,
2013-04-30 12:45:00,70.1,65.4,31.68,East,95,5.0,9.0,85,0.00,,,0.00,Wunderground v.1.15,2013-04-30 16:45:00,
2013-04-30 12:50:00,70.0,65.3,31.68,East,97,5.0,7.0,85,0.00,,,0.00,Wunderground v.1.15,2013-04-30 16:50:00,
2013-04-30 12:55:00,70.1,65.0,31.68,NE,40,5.0,7.0,84,0.00,,,0.00,Wunderground v.1.15,2013-04-30 16:55:00,
2013-04-30 13:00:00,71.3,66.6,31.68,NNE,19,6.0,10.0,85,0.00,,,0.00,Wunderground v.1.15,2013-04-30 17:00:00,
2013-04-30 13:05:00,73.1,66.6,31.68,NE,34,7.0,10.0,80,0.00,,,0.00,Wunderground v.1.15,2013-04-30 17:05:00,
2013-04-30 13:15:00,73.7,66.8,31.68,NE,40,7.0,8.0,79,0.00,,,0.00,Wunderground v.1.15,2013-04-30 17:15:00,
2013-04-30 13:20:00,73.7,67.5,31.68,NNE,24,6.0,10.0,81,0.00,,,0.00,Wunderground v.1.15,2013-04-30 17:20:00,
2013-04-30 13:25:00,74.1,67.2,31.68,NE,40,6.0,10.0,79,0.00,,,0.00,Wunderground v.1.15,2013-04-30 17:25:00,
2013-04-30 13:30:00,74.3,67.4,31.68,NE,42,6.0,6.0,79,0.00,,,0.00,Wunderground v.1.15,2013-04-30 17:30:00,
2013-04-30 13:35:00,74.0,66.7,31.68,ENE,61,6.0,6.0,78,0.00,,,0.00,Wunderground v.1.15,2013-04-30 17:35:00,
2013-04-30 13:40:00,73.7,66.0,31.68,NNE,33,7.0,7.0,77,0.00,,,0.00,Wunderground v.1.15,2013-04-30 17:40:00,
2013-04-30 13:45:00,73.3,66.0,31.68,East,83,6.0,7.0,78,0.00,,,0.00,Wunderground v.1.15,2013-04-30 17:45:00,
2013-04-30 13:50:00,72.6,65.3,31.68,ENE,74,6.0,6.0,78,0.00,,,0.00,Wunderground v.1.15,2013-04-30 17:50:00,
2013-04-30 13:55:00,72.2,65.0,31.68,NE,34,6.0,6.0,78,0.00,,,0.00,Wunderground v.1.15,2013-04-30 17:55:00,
2013-04-30 14:00:00,72.5,65.6,31.68,NNE,32,6.0,6.0,79,0.00,,,0.00,Wunderground v.1.15,2013-04-30 18:00:00,
2013-04-30 14:05:00,72.9,65.3,31.68,NE,52,7.0,7.0,77,0.00,,,0.00,Wunderground v.1.15,2013-04-30 18:05:00,
2013-04-30 14:10:00,72.4,64.8,31.68,NE,35,8.0,16.0,77,0.00,,,0.00,Wunderground v.1.15,2013-04-30 18:10:00,
2013-04-30 14:15:00,72.2,66.0,31.68,NE,38,7.0,16.0,81,0.00,,,0.00,Wunderground v.1.15,2013-04-30 18:15:00,
2013-04-30 14:20:00,73.0,65.7,31.68,NNE,30,5.0,12.0,78,0.00,,,0.00,Wunderground v.1.15,2013-04-30 18:20:00,
2013-04-30 14:25:00,74.1,66.4,31.68,NE,42,6.0,12.0,77,0.00,,,0.00,Wunderground v.1.15,2013-04-30 18:25:00,
2013-04-30 14:30:00,73.2,65.6,31.68,NE,39,8.0,8.0,77,0.00,,,0.00,Wunderground v.1.15,2013-04-30 18:30:00,
2013-04-30 14:35:00,72.6,65.3,31.68,NE,34,7.0,8.0,78,0.00,,,0.00,Wunderground v.1.15,2013-04-30 18:35:00,
2013-04-30 14:45:00,72.9,64.5,31.68,NE,49,5.0,6.0,75,0.00,,,0.00,Wunderground v.1.15,2013-04-30 18:45:00,
2013-04-30 14:50:00,72.8,65.2,31.68,NE,36,6.0,10.0,77,0.00,,,0.00,Wunderground v.1.15,2013-04-30 18:50:00,
2013-04-30 14:55:00,74.0,67.1,31.68,NE,34,5.0,10.0,79,0.00,,,0.00,Wunderground v.1.15,2013-04-30 18:55:00,
2013-04-30 15:00:00,74.6,66.1,31.68,NNE,32,6.0,6.0,75,0.00,,,0.00,Wunderground v.1.15,2013-04-30 19:00:00,
2013-04-30 15:05:00,74.0,65.6,31.68,NE,42,6.0,6.0,75,0.00,,,0.00,Wunderground v.1.15,2013-04-30 19:05:00,
2013-04-30 15:10:00,74.0,66.3,31.68,ESE,115,7.0,7.0,77,0.00,,,0.00,Wunderground v.1.15,2013-04-30 19:10:00,
2013-04-30 15:15:00,74.5,65.7,31.68,ESE,105,6.0,7.0,74,0.00,,,0.00,Wunderground v.1.15,2013-04-30 19:15:00,
2013-04-30 15:25:00,73.9,65.5,31.68,NNE,28,8.0,8.0,75,0.00,,,0.00,Wunderground v.1.15,2013-04-30 19:25:00,
2013-04-30 15:30:00,74.9,66.1,31.68,NNE,28,8.0,8.0,74,0.00,,,0.00,Wunderground v.1.15,2013-04-30 19:30:00,
2013-04-30 15:35:00,75.7,66.0,31.68,NE,52,8.0,11.0,72,0.00,,,0.00,Wunderground v.1.15,2013-04-30 19:35:00,
2013-04-30 15:40:00,75.3,65.2,31.68,NE,46,8.0,11.0,71,0.00,,,0.00,Wunderground v.1.15,2013-04-30 19:40:00,
2013-04-30 15:50:00,75.5,66.2,31.68,NNE,30,6.0,6.0,73,0.00,,,0.00,Wunderground v.1.15,2013-04-30 19:50:00,
2013-04-30 15:55:00,76.1,66.0,31.68,North,360,6.0,11.0,71,0.00,,,0.00,Wunderground v.1.15,2013-04-30 19:55:00,
2013-04-30 16:00:00,75.8,66.9,31.68,NE,42,7.0,7.0,74,0.00,,,0.00,Wunderground v.1.15,2013-04-30 20:00:00,
2013-04-30 16:05:00,74.7,65.9,31.68,ESE,107,6.0,7.0,74,0.00,,,0.00,Wunderground v.1.15,2013-04-30 20:05:00,
2013-04-30 16:10:00,74.6,65.4,31.68,NNE,21,7.0,12.0,73,0.00,,,0.00,Wunderground v.1.15,2013-04-30 20:10:00,
2013-04-30 16:15:00,74.9,65.3,31.68,NE,55,9.0,12.0,72,0.00,,,0.00,Wunderground v.1.15,2013-04-30 20:15:00,
2013-04-30 16:20:00,74.9,65.3,31.68,ENE,62,8.0,14.0,72,0.00,,,0.00,Wunderground v.1.15,2013-04-30 20:20:00,
2013-04-30 16:25:00,74.0,64.4,31.68,NE,34,8.0,14.0,72,0.00,,,0.00,Wunderground v.1.15,2013-04-30 20:25:00,
2013-04-30 16:30:00,73.4,64.6,31.68,NE,45,8.0,8.0,74,0.00,,,0.00,Wunderground v.1.15,2013-04-30 20:30:00,
2013-04-30 16:35:00,74.0,65.6,31.68,NE,46,8.0,10.0,75,0.00,,,0.00,Wunderground v.1.15,2013-04-30 20:35:00,
2013-04-30 16:45:00,73.6,64.4,31.68,NNE,22,9.0,9.0,73,0.00,,,0.00,Wunderground v.1.15,2013-04-30 20:45:00,
2013-04-30 16:50:00,73.2,64.8,31.68,ENE,63,7.0,7.0,75,0.00,,,0.00,Wunderground v.1.15,2013-04-30 20:50:00,
2013-04-30 16:55:00,74.0,65.2,31.68,NNE,26,6.0,7.0,74,0.00,,,0.00,Wunderground v.1.15,2013-04-30 20:55:00,
2013-04-30 17:00:00,73.7,64.1,31.68,NE,40,6.0,12.0,72,0.00,,,0.00,Wunderground v.1.15,2013-04-30 21:00:00,
2013-04-30 17:05:00,72.0,63.6,31.68,ENE,59,8.0,12.0,75,0.00,,,0.00,Wunderground v.1.15,2013-04-30 21:05:00,
2013-04-30 17:10:00,71.3,63.3,31.68,NNE,24,7.0,7.0,76,0.00,,,0.00,Wunderground v.1.15,2013-04-30 21:10:00,
2013-04-30 17:15:00,71.2,63.6,31.68,NE,52,6.0,7.0,77,0.00,,,0.00,Wunderground v.1.15,2013-04-30 21:15:00,
2013-04-30 17:20:00,71.4,63.1,31.68,NE,36,7.0,8.0,75,0.00,,,0.00,Wunderground v.1.15,2013-04-30 21:20:00,
2013-04-30 17:25:00,71.7,64.1,31.68,NE,45,7.0,9.0,77,0.00,,,0.00,Wunderground v.1.15,2013-04-30 21:25:00,
2013-04-30 17:30:00,72.1,64.1,31.68,ENE,69,6.0,6.0,76,0.00,,,0.00,Wunderground v.1.15,2013-04-30 21:30:00,
2013-04-30 17:35:00,71.6,63.6,31.68,NE,53,8.0,9.0,76,0.00,,,0.00,Wunderground v.1.15,2013-04-30 21:35:00,
2013-04-30 17:40:00,70.7,63.1,31.68,ENE,65,8.0,8.0,77,0.00,,,0.00,Wunderground v.1.15,2013-04-30 21:40:00,
2013-04-30 17:45:00,70.5,63.3,31.68,NE,38,6.0,8.0,78,0.00,,,0.00,Wunderground v.1.15,2013-04-30 21:45:00,
2013-04-30 17:50:00,70.6,63.4,31.68,SE,136,6.0,9.0,78,0.00,,,0.00,Wunderground v.1.15,2013-04-30 21:50:00,
2013-04-30 17:55:00,70.4,62.8,31.68,NE,46,7.0,10.0,77,0.00,,,0.00,Wunderground v.1.15,2013-04-30 21:55:00,
2013-04-30 18:00:00,70.3,62.7,31.68,NE,38,8.0,8.0,77,0.00,,,0.00,Wunderground v.1.15,2013-04-30 22:00:00,
2013-04-30 18:05:00,70.2,62.6,31.68,NNE,19,7.0,8.0,77,0.00,,,0.00,Wunderground v.1.15,2013-04-30 22:05:00,
2013-04-30 18:10:00,70.0,62.5,31.68,NE,37,7.0,7.0,77,0.00,,,0.00,Wunderground v.1.15,2013-04-30 22:10:00,
2013-04-30 18:20:00,69.8,62.3,31.68,NNE,30,7.0,7.0,77,0.00,,,0.00,Wunderground v.1.15,2013-04-30 22:20:00,
2013-04-30 18:25:00,69.6,62.1,31.68,NNE,28,7.0,9.0,77,0.00,,,0.00,Wunderground v.1.15,2013-04-30 22:25:00,
2013-04-30 18:30:00,69.4,61.9,31.68,ENE,66,7.0,9.0,77,0.00,,,0.00,Wunderground v.1.15,2013-04-30 22:30:00,
2013-04-30 18:40:00,69.3,62.1,31.68,NNE,26,7.0,7.0,78,0.00,,,0.00,Wunderground v.1.15,2013-04-30 22:40:00,
2013-04-30 18:45:00,69.0,61.5,31.68,NNE,26,5.0,7.0,77,0.00,,,0.00,Wunderground v.1.15,2013-04-30 22:45:00,
2013-04-30 18:55:00,68.1,60.6,31.68,NE,38,8.0,13.0,77,0.00,,,0.00,Wunderground v.1.15,2013-04-30 22:55:00,
2013-04-30 19:05:00,67.9,60.4,31.68,NE,34,5.0,6.0,77,0.00,,,0.00,Wunderground v.1.15,2013-04-30 23:05:00,
2013-04-30 19:15:00,67.5,60.0,31.68,East,92,6.0,6.0,77,0.00,,,0.00,Wunderground v.1.15,2013-04-30 23:15:00,
2013-04-30 19:20:00,67.4,60.3,31.68,NE,48,4.0,4.0,78,0.00,,,0.00,Wunderground v.1.15,2013-04-30 23:20:00,
2013-04-30 19:30:00,67.2,60.5,31.68,NE,48,3.0,3.0,79,0.00,,,0.00,Wunderground v.1.15,2013-04-30 23:30:00,
2013-04-30 19:40:00,66.9,60.2,31.68,NE,40,2.0,2.0,79,0.00,,,0.00,Wunderground v.1.15,2013-04-30 23:40:00,
2013-04-30 19:45:00,66.7,60.0,31.68,NNE,30,1.0,4.0,79,0.00,,,0.00,Wunderground v.1.15,2013-04-30 23:45:00,
2013-04-30 19:50:00,66.6,60.2,31.68,NE,38,2.0,2.0,80,0.00,,,0.00,Wunderground v.1.15,2013-04-30 23:50:00,
2013-04-30 19:55:00,66.5,60.5,31.68,NE,38,1.0,2.0,81,0.00,,,0.00,Wunderground v.1.15,2013-04-30 23:55:00,
2013-04-30 20:00:00,66.2,60.2,31.68,NE,50,1.0,3.0,81,0.00,,,0.00,Wunderground v.1.15,2013-05-01 00:00:00,
2013-04-30 20:05:00,66.0,60.3,31.68,NE,45,2.0,3.0,82,0.00,,,0.00,Wunderground v.1.15,2013-05-01 00:05:00,
2013-04-30 20:15:00,65.7,60.4,31.68,NNE,12,3.0,5.0,83,0.00,,,0.00,Wunderground v.1.15,2013-05-01 00:15:00,
2013-04-30 20:20:00,65.5,60.5,31.68,NNE,30,3.0,3.0,84,0.00,,,0.00,Wunderground v.1.15,2013-05-01 00:20:00,
2013-04-30 20:25:00,65.4,60.4,31.68,NNE,13,4.0,6.0,84,0.00,,,0.00,Wunderground v.1.15,2013-05-01 00:25:00,
2013-04-30 20:30:00,65.3,60.3,31.68,NNE,28,5.0,5.0,84,0.00,,,0.00,Wunderground v.1.15,2013-05-01 00:30:00,
2013-04-30 20:35:00,65.2,60.2,31.68,NNE,19,4.0,5.0,84,0.00,,,0.00,Wunderground v.1.15,2013-05-01 00:35:00,
2013-04-30 20:40:00,65.0,60.4,31.68,NNE,17,3.0,5.0,85,0.00,,,0.00,Wunderground v.1.15,2013-05-01 00:40:00,
2013-04-30 20:45:00,64.8,60.5,31.68,NNE,19,3.0,5.0,86,0.00,,,0.00,Wunderground v.1.15,2013-05-01 00:45:00,
2013-04-30 20:50:00,64.5,60.2,31.68,NE,44,3.0,3.0,86,0.00,,,0.00,Wunderground v.1.15,2013-05-01 00:50:00,
2013-04-30 20:55:00,64.3,60.3,31.68,NE,44,2.0,3.0,87,0.00,,,0.00,Wunderground v.1.15,2013-05-01 00:55:00,
2013-04-30 21:00:00,64.1,60.2,31.68,ENE,71,2.0,6.0,87,0.00,,,0.00,Wunderground v.1.15,2013-05-01 01:00:00,
2013-04-30 21:05:00,63.9,60.0,31.68,NNE,33,3.0,6.0,87,0.00,,,0.00,Wunderground v.1.15,2013-05-01 01:05:00,
2013-04-30 21:10:00,63.8,59.9,31.68,NNE,21,3.0,3.0,87,0.00,,,0.00,Wunderground v.1.15,2013-05-01 01:10:00,
2013-04-30 21:15:00,63.6,60.0,31.68,NNE,27,2.0,3.0,88,0.00,,,0.00,Wunderground v.1.15,2013-05-01 01:15:00,
2013-04-30 21:20:00,63.4,59.8,31.68,NNE,27,1.0,2.0,88,0.00,,,0.00,Wunderground v.1.15,2013-05-01 01:20:00,
2013-04-30 21:25:00,63.2,59.6,31.68,NNE,24,1.0,4.0,88,0.00,,,0.00,Wunderground v.1.15,2013-05-01 01:25:00,
2013-04-30 21:30:00,63.0,59.7,31.68,NNE,22,1.0,1.0,89,0.00,,,0.00,Wunderground v.1.15,2013-05-01 01:30:00,
2013-04-30 21:35:00,62.8,59.5,31.68,NE,49,2.0,2.0,89,0.00,,,0.00,Wunderground v.1.15,2013-05-01 01:35:00,
2013-04-30 21:45:00,62.6,59.3,31.68,NE,49,1.0,2.0,89,0.00,,,0.00,Wunderground v.1.15,2013-05-01 01:45:00,
2013-04-30 21:50:00,62.4,59.1,31.68,NE,40,1.0,2.0,89,0.00,,,0.00,Wunderground v.1.15,2013-05-01 01:50:00,
2013-04-30 21:55:00,62.3,59.3,31.68,NE,41,1.0,2.0,90,0.00,,,0.00,Wunderground v.1.15,2013-05-01 01:55:00,
2013-04-30 22:05:00,62.1,59.1,31.68,NE,44,2.0,2.0,90,0.00,,,0.00,Wunderground v.1.15,2013-05-01 02:05:00,
2013-04-30 22:15:00,62.0,59.0,31.68,NE,36,2.0,2.0,90,0.00,,,0.00,Wunderground v.1.15,2013-05-01 02:15:00,
2013-04-30 22:20:00,61.8,58.8,31.68,NNE,24,2.0,2.0,90,0.00,,,0.00,Wunderground v.1.15,2013-05-01 02:20:00,
2013-04-30 22:25:00,61.7,58.7,31.68,NNE,28,2.0,4.0,90,0.00,,,0.00,Wunderground v.1.15,2013-05-01 02:25:00,
2013-04-30 22:30:00,61.5,58.8,31.68,NE,42,2.0,4.0,91,0.00,,,0.00,Wunderground v.1.15,2013-05-01 02:30:00,
2013-04-30 22:35:00,61.4,58.7,31.68,NE,37,3.0,4.0,91,0.00,,,0.00,Wunderground v.1.15,2013-05-01 02:35:00,
2013-04-30 22:40:00,61.4,58.7,31.68,NE,39,3.0,5.0,91,0.00,,,0.00,Wunderground v.1.15,2013-05-01 02:40:00,
2013-04-30 22:45:00,61.4,58.7,31.68,NE,36,3.0,5.0,91,0.00,,,0.00,Wunderground v.1.15,2013-05-01 02:45:00,
2013-04-30 22:50:00,61.4,58.4,31.68,NE,34,3.0,3.0,90,0.00,,,0.00,Wunderground v.1.15,2013-05-01 02:50:00,
2013-04-30 22:55:00,61.3,58.3,31.68,NE,44,2.0,3.0,90,0.00,,,0.00,Wunderground v.1.15,2013-05-01 02:55:00,
2013-04-30 23:00:00,61.2,58.2,31.68,NE,44,1.0,1.0,90,0.00,,,0.00,Wunderground v.1.15,2013-05-01 03:00:00,
2013-04-30 23:05:00,61.1,58.1,31.68,NE,42,1.0,4.0,90,0.00,,,0.00,Wunderground v.1.15,2013-05-01 03:05:00,
2013-04-30 23:10:00,61.0,58.0,31.68,NE,41,1.0,5.0,90,0.00,,,0.00,Wunderground v.1.15,2013-05-01 03:10:00,
2013-04-30 23:15:00,60.9,58.3,31.68,NE,38,2.0,5.0,91,0.00,,,0.00,Wunderground v.1.15,2013-05-01 03:15:00,
2013-04-30 23:20:00,60.8,58.2,31.68,NNE,30,2.0,5.0,91,0.00,,,0.00,Wunderground v.1.15,2013-05-01 03:20:00,
2013-04-30 23:25:00,60.7,58.1,31.68,NNE,30,2.0,5.0,91,0.00,,,0.00,Wunderground v.1.15,2013-05-01 03:25:00,
2013-04-30 23:30:00,60.6,58.0,31.68,North,355,1.0,1.0,91,0.00,,,0.00,Wunderground v.1.15,2013-05-01 03:30:00,
2013-04-30 23:40:00,60.4,58.1,31.68,North,360,1.0,1.0,92,0.00,,,0.00,Wunderground v.1.15,2013-05-01 03:40:00,
2013-04-30 23:45:00,60.3,58.0,31.68,NNE,24,1.0,1.0,92,0.00,,,0.00,Wunderground v.1.15,2013-05-01 03:45:00,
2013-04-30 23:50:00,60.2,57.9,31.68,NNE,24,1.0,1.0,92,0.00,,,0.00,Wunderground v.1.15,2013-05-01 03:50:00,
2013-04-30 23:55:00,60.0,57.7,31.68,NNE,26,1.0,1.0,92,0.00,,,0.00,Wunderground v.1.15,2013-05-01 03:55:00,